Sharm el Sheikh, Egypt
Current Conditions -  °F | °C
As of 4:00 AM on Saturday 01 Nov 2014 (Local Time) from HESH Reporting Station
Clear Clear  
Wind Chill: 23°   Ceiling: Unl
Heat Index: 23°   Visibility: 6mi
Dew Point: 15°   Wind: 13mph
Humidity: 61%   Direction: 360°N
Pressure: 29.91"   Gusts: NA
Location:  27.98°N, 34.39°E
Report Text: HESH 010200Z 36011KT CAVOK 23/15 Q1013 NOSIG
Loading
Personal Weather Stations






























Interactive Weather Map
Tropical Storm Tracking
New forecast layout! Learn more

10-Day Weather Forecast

Advertisements
Track Severe Weather on mobile